sensor_id;sensor_type;location;lat;lon;timestamp;temperature;humidity
18434;DHT22;9344;52.294;13.626;2022-10-16T00:00:19;15.10;99.90
18434;DHT22;9344;52.294;13.626;2022-10-16T00:02:46;15.00;99.90
18434;DHT22;9344;52.294;13.626;2022-10-16T00:05:12;15.00;99.90
18434;DHT22;9344;52.294;13.626;2022-10-16T00:07:39;15.10;99.90
18434;DHT22;9344;52.294;13.626;2022-10-16T00:10:06;15.00;99.90
18434;DHT22;9344;52.294;13.626;2022-10-16T00:12:34;15.00;99.90
18434;DHT22;9344;52.294;13.626;2022-10-16T00:15:00;15.00;99.90
18434;DHT22;9344;52.294;13.626;2022-10-16T00:17:27;15.00;99.90
18434;DHT22;9344;52.294;13.626;2022-10-16T00:19:53;15.10;99.90
18434;DHT22;9344;52.294;13.626;2022-10-16T00:22:20;15.10;99.90
18434;DHT22;9344;52.294;13.626;2022-10-16T00:24:46;15.10;99.90
18434;DHT22;9344;52.294;13.626;2022-10-16T00:27:13;15.10;99.90
18434;DHT22;9344;52.294;13.626;2022-10-16T00:29:41;15.10;99.90
18434;DHT22;9344;52.294;13.626;2022-10-16T00:32:08;15.10;99.90
18434;DHT22;9344;52.294;13.626;2022-10-16T00:34:34;15.10;99.90
18434;DHT22;9344;52.294;13.626;2022-10-16T00:37:01;15.00;99.90
18434;DHT22;9344;52.294;13.626;2022-10-16T00:39:28;15.10;99.90
18434;DHT22;9344;52.294;13.626;2022-10-16T00:41:55;15.10;99.90
18434;DHT22;9344;52.294;13.626;2022-10-16T00:44:46;14.80;99.90
18434;DHT22;9344;52.294;13.626;2022-10-16T00:47:19;15.10;99.90
18434;DHT22;9344;52.294;13.626;2022-10-16T00:49:47;15.10;99.90
18434;DHT22;9344;52.294;13.626;2022-10-16T00:52:14;15.10;99.90
18434;DHT22;9344;52.294;13.626;2022-10-16T00:54:41;15.10;99.90
18434;DHT22;9344;52.294;13.626;2022-10-16T00:57:08;15.00;99.90
18434;DHT22;9344;52.294;13.626;2022-10-16T00:59:36;15.10;99.90
18434;DHT22;9344;52.294;13.626;2022-10-16T01:02:06;15.00;99.90
18434;DHT22;9344;52.294;13.626;2022-10-16T01:04:35;15.00;99.90
18434;DHT22;9344;52.294;13.626;2022-10-16T01:07:12;15.10;99.90
18434;DHT22;9344;52.294;13.626;2022-10-16T01:09:47;15.00;99.90
18434;DHT22;9344;52.294;13.626;2022-10-16T01:12:22;15.00;99.90
18434;DHT22;9344;52.294;13.626;2022-10-16T01:14:54;15.00;99.90
18434;DHT22;9344;52.294;13.626;2022-10-16T01:17:29;15.00;99.90
18434;DHT22;9344;52.294;13.626;2022-10-16T01:20:05;15.00;99.90
18434;DHT22;9344;52.294;13.626;2022-10-16T01:22:47;15.00;99.90
18434;DHT22;9344;52.294;13.626;2022-10-16T01:25:20;15.10;99.90
18434;DHT22;9344;52.294;13.626;2022-10-16T01:27:50;15.10;99.90
18434;DHT22;9344;52.294;13.626;2022-10-16T01:30:20;15.10;99.90
18434;DHT22;9344;52.294;13.626;2022-10-16T01:32:52;15.10;99.90
18434;DHT22;9344;52.294;13.626;2022-10-16T01:35:24;15.10;99.90
18434;DHT22;9344;52.294;13.626;2022-10-16T01:37:54;15.10;99.90
18434;DHT22;9344;52.294;13.626;2022-10-16T01:40:26;15.10;99.90
18434;DHT22;9344;52.294;13.626;2022-10-16T01:42:58;15.10;99.90
18434;DHT22;9344;52.294;13.626;2022-10-16T01:45:28;15.20;99.90
18434;DHT22;9344;52.294;13.626;2022-10-16T01:47:56;15.20;99.90
18434;DHT22;9344;52.294;13.626;2022-10-16T01:50:24;15.20;99.90
18434;DHT22;9344;52.294;13.626;2022-10-16T01:52:55;15.20;99.90
18434;DHT22;9344;52.294;13.626;2022-10-16T01:55:28;15.20;99.90
18434;DHT22;9344;52.294;13.626;2022-10-16T01:57:58;15.20;99.90
18434;DHT22;9344;52.294;13.626;2022-10-16T02:00:26;15.20;99.90
18434;DHT22;9344;52.294;13.626;2022-10-16T02:02:53;15.20;99.90
18434;DHT22;9344;52.294;13.626;2022-10-16T02:05:25;15.20;99.90
18434;DHT22;9344;52.294;13.626;2022-10-16T02:07:53;15.20;99.90
18434;DHT22;9344;52.294;13.626;2022-10-16T02:10:20;15.30;99.90
18434;DHT22;9344;52.294;13.626;2022-10-16T02:12:50;15.30;99.90
18434;DHT22;9344;52.294;13.626;2022-10-16T02:15:19;15.20;99.90
18434;DHT22;9344;52.294;13.626;2022-10-16T02:17:46;15.30;99.90
18434;DHT22;9344;52.294;13.626;2022-10-16T02:20:12;15.30;99.90
18434;DHT22;9344;52.294;13.626;2022-10-16T02:22:41;15.30;99.90
18434;DHT22;9344;52.294;13.626;2022-10-16T02:25:11;15.30;99.90
18434;DHT22;9344;52.294;13.626;2022-10-16T02:27:47;15.30;99.90
18434;DHT22;9344;52.294;13.626;2022-10-16T02:30:21;15.40;99.90
18434;DHT22;9344;52.294;13.626;2022-10-16T02:32:51;15.40;99.90
18434;DHT22;9344;52.294;13.626;2022-10-16T02:35:20;15.40;99.90
18434;DHT22;9344;52.294;13.626;2022-10-16T02:37:48;15.40;99.90
18434;DHT22;9344;52.294;13.626;2022-10-16T02:40:15;15.50;99.90
18434;DHT22;9344;52.294;13.626;2022-10-16T02:42:43;15.50;99.90
18434;DHT22;9344;52.294;13.626;2022-10-16T02:45:10;15.50;99.90
18434;DHT22;9344;52.294;13.626;2022-10-16T02:47:38;15.60;99.90
18434;DHT22;9344;52.294;13.626;2022-10-16T02:50:06;15.60;99.90
18434;DHT22;9344;52.294;13.626;2022-10-16T02:52:32;15.60;99.90
18434;DHT22;9344;52.294;13.626;2022-10-16T02:54:59;15.60;99.90
18434;DHT22;9344;52.294;13.626;2022-10-16T02:57:25;15.60;99.90
18434;DHT22;9344;52.294;13.626;2022-10-16T02:59:52;15.60;99.90
18434;DHT22;9344;52.294;13.626;2022-10-16T03:02:20;15.60;99.90
18434;DHT22;9344;52.294;13.626;2022-10-16T03:04:47;15.60;99.90
18434;DHT22;9344;52.294;13.626;2022-10-16T03:07:14;15.70;99.90
18434;DHT22;9344;52.294;13.626;2022-10-16T03:09:41;15.70;99.90
18434;DHT22;9344;52.294;13.626;2022-10-16T03:12:07;15.70;99.90
18434;DHT22;9344;52.294;13.626;2022-10-16T03:14:34;15.70;99.90
18434;DHT22;9344;52.294;13.626;2022-10-16T03:17:00;16.00;99.90
18434;DHT22;9344;52.294;13.626;2022-10-16T03:19:27;15.70;99.90
18434;DHT22;9344;52.294;13.626;2022-10-16T03:21:55;15.70;99.90
18434;DHT22;9344;52.294;13.626;2022-10-16T03:24:21;15.70;99.90
18434;DHT22;9344;52.294;13.626;2022-10-16T03:26:48;15.80;99.90
18434;DHT22;9344;52.294;13.626;2022-10-16T03:29:14;15.80;99.90
18434;DHT22;9344;52.294;13.626;2022-10-16T03:31:41;15.70;99.90
18434;DHT22;9344;52.294;13.626;2022-10-16T03:34:07;15.80;99.90
18434;DHT22;9344;52.294;13.626;2022-10-16T03:36:34;15.80;99.90
18434;DHT22;9344;52.294;13.626;2022-10-16T03:39:02;15.70;99.90
18434;DHT22;9344;52.294;13.626;2022-10-16T03:41:29;15.70;99.90
18434;DHT22;9344;52.294;13.626;2022-10-16T03:43:55;15.70;99.90
18434;DHT22;9344;52.294;13.626;2022-10-16T03:46:22;15.80;99.90
18434;DHT22;9344;52.294;13.626;2022-10-16T03:48:48;15.70;99.90
18434;DHT22;9344;52.294;13.626;2022-10-16T03:51:15;15.70;99.90
18434;DHT22;9344;52.294;13.626;2022-10-16T03:53:42;15.70;99.90
18434;DHT22;9344;52.294;13.626;2022-10-16T03:56:09;15.70;99.90
18434;DHT22;9344;52.294;13.626;2022-10-16T03:58:36;15.70;99.90
18434;DHT22;9344;52.294;13.626;2022-10-16T04:01:02;15.70;99.90
18434;DHT22;9344;52.294;13.626;2022-10-16T04:03:29;15.70;99.90
18434;DHT22;9344;52.294;13.626;2022-10-16T04:05:55;15.60;99.90
18434;DHT22;9344;52.294;13.626;2022-10-16T04:08:22;15.60;99.90
18434;DHT22;9344;52.294;13.626;2022-10-16T04:10:49;15.60;99.90
18434;DHT22;9344;52.294;13.626;2022-10-16T04:13:16;15.60;99.90
18434;DHT22;9344;52.294;13.626;2022-10-16T04:15:44;15.60;99.90
18434;DHT22;9344;52.294;13.626;2022-10-16T04:18:11;15.60;99.90
18434;DHT22;9344;52.294;13.626;2022-10-16T04:20:38;15.70;99.90
18434;DHT22;9344;52.294;13.626;2022-10-16T04:23:05;15.70;99.90
18434;DHT22;9344;52.294;13.626;2022-10-16T04:25:31;15.60;99.90
18434;DHT22;9344;52.294;13.626;2022-10-16T04:27:58;15.60;99.90
18434;DHT22;9344;52.294;13.626;2022-10-16T04:30:25;15.60;99.90
18434;DHT22;9344;52.294;13.626;2022-10-16T04:32:52;15.50;99.90
18434;DHT22;9344;52.294;13.626;2022-10-16T04:35:20;15.60;99.90
18434;DHT22;9344;52.294;13.626;2022-10-16T04:37:46;15.60;99.90
18434;DHT22;9344;52.294;13.626;2022-10-16T04:40:13;15.60;99.90
18434;DHT22;9344;52.294;13.626;2022-10-16T04:42:40;15.60;99.90
18434;DHT22;9344;52.294;13.626;2022-10-16T04:45:07;15.70;99.90
18434;DHT22;9344;52.294;13.626;2022-10-16T04:47:36;15.60;99.90
18434;DHT22;9344;52.294;13.626;2022-10-16T04:50:03;15.60;99.90
18434;DHT22;9344;52.294;13.626;2022-10-16T04:52:29;15.60;99.90
18434;DHT22;9344;52.294;13.626;2022-10-16T04:54:57;15.60;99.90
18434;DHT22;9344;52.294;13.626;2022-10-16T04:57:26;15.60;99.90
18434;DHT22;9344;52.294;13.626;2022-10-16T04:59:53;15.60;99.90
18434;DHT22;9344;52.294;13.626;2022-10-16T05:02:19;15.60;99.90
18434;DHT22;9344;52.294;13.626;2022-10-16T05:04:47;15.60;99.90
18434;DHT22;9344;52.294;13.626;2022-10-16T05:07:14;15.60;99.90
18434;DHT22;9344;52.294;13.626;2022-10-16T05:09:40;15.60;99.90
18434;DHT22;9344;52.294;13.626;2022-10-16T05:12:07;15.60;99.90
18434;DHT22;9344;52.294;13.626;2022-10-16T05:14:33;15.60;99.90
18434;DHT22;9344;52.294;13.626;2022-10-16T05:17:00;15.60;99.90
18434;DHT22;9344;52.294;13.626;2022-10-16T05:19:27;15.50;99.90
18434;DHT22;9344;52.294;13.626;2022-10-16T05:21:55;15.50;99.90
18434;DHT22;9344;52.294;13.626;2022-10-16T05:24:21;15.50;99.90
18434;DHT22;9344;52.294;13.626;2022-10-16T05:26:48;15.50;99.90
18434;DHT22;9344;52.294;13.626;2022-10-16T05:29:14;15.40;99.90
18434;DHT22;9344;52.294;13.626;2022-10-16T05:31:41;15.50;99.90
18434;DHT22;9344;52.294;13.626;2022-10-16T05:34:08;15.40;99.90
18434;DHT22;9344;52.294;13.626;2022-10-16T05:36:34;15.40;99.90
18434;DHT22;9344;52.294;13.626;2022-10-16T05:39:02;15.40;99.90
18434;DHT22;9344;52.294;13.626;2022-10-16T05:41:29;15.40;99.90
18434;DHT22;9344;52.294;13.626;2022-10-16T05:43:56;15.40;99.90
18434;DHT22;9344;52.294;13.626;2022-10-16T05:46:23;15.30;99.90
18434;DHT22;9344;52.294;13.626;2022-10-16T05:48:51;15.30;99.90
18434;DHT22;9344;52.294;13.626;2022-10-16T05:51:18;15.30;99.90
18434;DHT22;9344;52.294;13.626;2022-10-16T05:53:44;15.30;99.90
18434;DHT22;9344;52.294;13.626;2022-10-16T05:56:12;15.20;99.90
18434;DHT22;9344;52.294;13.626;2022-10-16T05:58:40;15.20;99.90
18434;DHT22;9344;52.294;13.626;2022-10-16T06:01:10;15.20;99.90
18434;DHT22;9344;52.294;13.626;2022-10-16T06:03:37;15.20;99.90
18434;DHT22;9344;52.294;13.626;2022-10-16T06:06:10;15.20;99.90
18434;DHT22;9344;52.294;13.626;2022-10-16T06:08:37;15.20;99.90
18434;DHT22;9344;52.294;13.626;2022-10-16T06:11:05;15.20;99.90
18434;DHT22;9344;52.294;13.626;2022-10-16T06:13:33;15.20;99.90
18434;DHT22;9344;52.294;13.626;2022-10-16T06:16:00;15.20;99.90
18434;DHT22;9344;52.294;13.626;2022-10-16T06:18:28;15.20;99.90
18434;DHT22;9344;52.294;13.626;2022-10-16T06:20:55;15.20;99.90
18434;DHT22;9344;52.294;13.626;2022-10-16T06:23:22;15.20;99.90
18434;DHT22;9344;52.294;13.626;2022-10-16T06:25:48;15.20;99.90
18434;DHT22;9344;52.294;13.626;2022-10-16T06:28:16;15.30;99.90
18434;DHT22;9344;52.294;13.626;2022-10-16T06:30:44;15.30;99.90
18434;DHT22;9344;52.294;13.626;2022-10-16T06:33:11;15.40;99.90
18434;DHT22;9344;52.294;13.626;2022-10-16T06:35:37;15.40;99.90
18434;DHT22;9344;52.294;13.626;2022-10-16T06:38:04;15.50;99.90
18434;DHT22;9344;52.294;13.626;2022-10-16T06:40:30;15.50;99.90
18434;DHT22;9344;52.294;13.626;2022-10-16T06:42:57;15.50;99.90
18434;DHT22;9344;52.294;13.626;2022-10-16T06:45:23;15.60;99.90
18434;DHT22;9344;52.294;13.626;2022-10-16T06:47:51;15.70;99.90
18434;DHT22;9344;52.294;13.626;2022-10-16T06:50:18;15.70;99.90
18434;DHT22;9344;52.294;13.626;2022-10-16T06:52:45;15.70;99.90
18434;DHT22;9344;52.294;13.626;2022-10-16T06:55:11;15.70;99.90
18434;DHT22;9344;52.294;13.626;2022-10-16T06:57:38;15.70;99.90
18434;DHT22;9344;52.294;13.626;2022-10-16T07:00:06;15.80;99.90
18434;DHT22;9344;52.294;13.626;2022-10-16T07:02:32;15.80;99.90
18434;DHT22;9344;52.294;13.626;2022-10-16T07:05:00;15.80;99.90
18434;DHT22;9344;52.294;13.626;2022-10-16T07:07:27;15.80;99.90
18434;DHT22;9344;52.294;13.626;2022-10-16T07:09:53;15.70;99.90
18434;DHT22;9344;52.294;13.626;2022-10-16T07:12:20;15.80;99.90
18434;DHT22;9344;52.294;13.626;2022-10-16T07:14:46;15.80;99.90
18434;DHT22;9344;52.294;13.626;2022-10-16T07:17:13;15.80;99.90
18434;DHT22;9344;52.294;13.626;2022-10-16T07:19:39;15.90;99.90
18434;DHT22;9344;52.294;13.626;2022-10-16T07:22:07;15.90;99.90
18434;DHT22;9344;52.294;13.626;2022-10-16T07:24:34;16.00;99.90
18434;DHT22;9344;52.294;13.626;2022-10-16T07:27:00;15.90;99.90
18434;DHT22;9344;52.294;13.626;2022-10-16T07:29:27;16.00;99.90
18434;DHT22;9344;52.294;13.626;2022-10-16T07:31:53;16.10;99.90
18434;DHT22;9344;52.294;13.626;2022-10-16T07:34:20;16.20;99.90
18434;DHT22;9344;52.294;13.626;2022-10-16T07:36:48;16.20;99.90
18434;DHT22;9344;52.294;13.626;2022-10-16T07:39:17;16.30;99.90
18434;DHT22;9344;52.294;13.626;2022-10-16T07:41:44;16.40;99.90
18434;DHT22;9344;52.294;13.626;2022-10-16T07:44:10;16.50;99.90
18434;DHT22;9344;52.294;13.626;2022-10-16T07:46:37;16.60;99.90
18434;DHT22;9344;52.294;13.626;2022-10-16T07:49:03;16.60;99.90
18434;DHT22;9344;52.294;13.626;2022-10-16T07:51:30;16.80;99.90
18434;DHT22;9344;52.294;13.626;2022-10-16T07:53:57;16.90;99.90
18434;DHT22;9344;52.294;13.626;2022-10-16T07:56:25;17.00;99.90
18434;DHT22;9344;52.294;13.626;2022-10-16T07:58:52;17.10;99.90
18434;DHT22;9344;52.294;13.626;2022-10-16T08:01:19;17.10;99.90
18434;DHT22;9344;52.294;13.626;2022-10-16T08:03:47;17.30;99.90
18434;DHT22;9344;52.294;13.626;2022-10-16T08:06:14;17.30;99.90
18434;DHT22;9344;52.294;13.626;2022-10-16T08:08:41;17.30;99.90
18434;DHT22;9344;52.294;13.626;2022-10-16T08:11:08;17.40;99.90
18434;DHT22;9344;52.294;13.626;2022-10-16T08:13:36;17.40;99.90
18434;DHT22;9344;52.294;13.626;2022-10-16T08:16:04;17.40;99.90
18434;DHT22;9344;52.294;13.626;2022-10-16T08:18:33;17.40;99.90
18434;DHT22;9344;52.294;13.626;2022-10-16T08:21:00;17.50;99.90
18434;DHT22;9344;52.294;13.626;2022-10-16T08:23:27;17.50;99.90
18434;DHT22;9344;52.294;13.626;2022-10-16T08:25:55;17.60;99.90
18434;DHT22;9344;52.294;13.626;2022-10-16T08:28:23;17.70;99.90
18434;DHT22;9344;52.294;13.626;2022-10-16T08:30:51;17.70;99.90
18434;DHT22;9344;52.294;13.626;2022-10-16T08:33:17;17.80;99.90
18434;DHT22;9344;52.294;13.626;2022-10-16T08:35:50;17.80;99.90
18434;DHT22;9344;52.294;13.626;2022-10-16T08:38:17;17.80;99.90
18434;DHT22;9344;52.294;13.626;2022-10-16T08:40:43;17.80;99.90
18434;DHT22;9344;52.294;13.626;2022-10-16T08:43:25;17.80;99.90
18434;DHT22;9344;52.294;13.626;2022-10-16T08:46:17;17.90;99.90
18434;DHT22;9344;52.294;13.626;2022-10-16T08:48:47;17.90;99.90
18434;DHT22;9344;52.294;13.626;2022-10-16T08:51:19;18.00;99.90
18434;DHT22;9344;52.294;13.626;2022-10-16T08:53:51;17.70;99.90
18434;DHT22;9344;52.294;13.626;2022-10-16T08:56:19;18.10;99.90
18434;DHT22;9344;52.294;13.626;2022-10-16T08:58:46;18.10;99.90
18434;DHT22;9344;52.294;13.626;2022-10-16T09:01:16;18.20;99.90
18434;DHT22;9344;52.294;13.626;2022-10-16T09:04:05;18.20;99.90
18434;DHT22;9344;52.294;13.626;2022-10-16T09:06:42;18.30;99.90
18434;DHT22;9344;52.294;13.626;2022-10-16T09:09:32;18.30;99.90
18434;DHT22;9344;52.294;13.626;2022-10-16T09:12:08;18.30;99.90
18434;DHT22;9344;52.294;13.626;2022-10-16T09:14:50;18.30;99.90
18434;DHT22;9344;52.294;13.626;2022-10-16T09:17:30;18.20;99.90
18434;DHT22;9344;52.294;13.626;2022-10-16T09:20:18;18.20;99.90
18434;DHT22;9344;52.294;13.626;2022-10-16T09:22:45;18.20;99.90
18434;DHT22;9344;52.294;13.626;2022-10-16T09:25:14;18.30;99.90
18434;DHT22;9344;52.294;13.626;2022-10-16T09:27:42;18.30;99.90
18434;DHT22;9344;52.294;13.626;2022-10-16T09:30:12;18.30;99.90
18434;DHT22;9344;52.294;13.626;2022-10-16T09:32:41;18.40;99.90
18434;DHT22;9344;52.294;13.626;2022-10-16T09:35:13;18.40;99.90
18434;DHT22;9344;52.294;13.626;2022-10-16T09:37:42;18.50;99.90
18434;DHT22;9344;52.294;13.626;2022-10-16T09:40:12;18.50;99.90
18434;DHT22;9344;52.294;13.626;2022-10-16T09:42:39;18.60;99.90
18434;DHT22;9344;52.294;13.626;2022-10-16T09:45:20;18.70;99.90
18434;DHT22;9344;52.294;13.626;2022-10-16T09:47:50;18.80;99.90
18434;DHT22;9344;52.294;13.626;2022-10-16T09:50:22;18.70;99.90
18434;DHT22;9344;52.294;13.626;2022-10-16T09:52:49;18.70;99.90
18434;DHT22;9344;52.294;13.626;2022-10-16T09:55:17;18.70;99.90
18434;DHT22;9344;52.294;13.626;2022-10-16T09:57:50;18.70;99.90
18434;DHT22;9344;52.294;13.626;2022-10-16T10:00:17;18.70;99.90
18434;DHT22;9344;52.294;13.626;2022-10-16T10:02:45;18.70;99.90
18434;DHT22;9344;52.294;13.626;2022-10-16T10:05:20;18.70;99.90
18434;DHT22;9344;52.294;13.626;2022-10-16T10:07:54;18.80;99.90
18434;DHT22;9344;52.294;13.626;2022-10-16T10:10:23;19.00;99.90
18434;DHT22;9344;52.294;13.626;2022-10-16T10:12:51;19.00;99.90
18434;DHT22;9344;52.294;13.626;2022-10-16T10:15:18;19.00;99.90
18434;DHT22;9344;52.294;13.626;2022-10-16T10:17:48;19.00;99.90
18434;DHT22;9344;52.294;13.626;2022-10-16T10:20:23;19.00;99.90
18434;DHT22;9344;52.294;13.626;2022-10-16T10:22:50;19.00;99.90
18434;DHT22;9344;52.294;13.626;2022-10-16T10:25:33;19.10;99.90
18434;DHT22;9344;52.294;13.626;2022-10-16T10:28:09;19.10;99.90
18434;DHT22;9344;52.294;13.626;2022-10-16T10:30:44;19.00;99.90
18434;DHT22;9344;52.294;13.626;2022-10-16T10:33:25;19.10;99.90
18434;DHT22;9344;52.294;13.626;2022-10-16T10:36:05;19.20;99.90
18434;DHT22;9344;52.294;13.626;2022-10-16T10:38:40;21.00;99.90
18434;DHT22;9344;52.294;13.626;2022-10-16T10:41:16;19.30;99.90
18434;DHT22;9344;52.294;13.626;2022-10-16T10:43:54;19.40;99.90
18434;DHT22;9344;52.294;13.626;2022-10-16T10:46:31;19.50;99.90
18434;DHT22;9344;52.294;13.626;2022-10-16T10:49:24;19.50;99.90
18434;DHT22;9344;52.294;13.626;2022-10-16T10:52:02;19.50;99.90
18434;DHT22;9344;52.294;13.626;2022-10-16T10:54:35;19.50;99.90
18434;DHT22;9344;52.294;13.626;2022-10-16T10:57:10;19.50;99.90
18434;DHT22;9344;52.294;13.626;2022-10-16T11:02:38;19.50;99.90
18434;DHT22;9344;52.294;13.626;2022-10-16T11:05:20;19.60;99.90
18434;DHT22;9344;52.294;13.626;2022-10-16T11:07:54;19.70;99.90
18434;DHT22;9344;52.294;13.626;2022-10-16T11:10:22;19.80;99.90
18434;DHT22;9344;52.294;13.626;2022-10-16T11:12:54;19.90;99.90
18434;DHT22;9344;52.294;13.626;2022-10-16T11:15:25;19.90;99.90
18434;DHT22;9344;52.294;13.626;2022-10-16T11:17:58;20.00;99.90
18434;DHT22;9344;52.294;13.626;2022-10-16T11:20:28;20.00;99.90
18434;DHT22;9344;52.294;13.626;2022-10-16T11:23:01;20.10;99.90
18434;DHT22;9344;52.294;13.626;2022-10-16T11:25:30;20.10;99.90
18434;DHT22;9344;52.294;13.626;2022-10-16T11:28:00;20.20;99.90
18434;DHT22;9344;52.294;13.626;2022-10-16T11:30:30;20.20;99.90
18434;DHT22;9344;52.294;13.626;2022-10-16T11:33:04;20.30;99.90
18434;DHT22;9344;52.294;13.626;2022-10-16T11:35:41;20.30;99.90
18434;DHT22;9344;52.294;13.626;2022-10-16T11:38:15;20.30;99.90
18434;DHT22;9344;52.294;13.626;2022-10-16T11:40:47;20.40;99.90
18434;DHT22;9344;52.294;13.626;2022-10-16T11:43:19;20.40;99.90
18434;DHT22;9344;52.294;13.626;2022-10-16T11:45:50;20.50;99.90
18434;DHT22;9344;52.294;13.626;2022-10-16T11:48:23;20.60;99.90
18434;DHT22;9344;52.294;13.626;2022-10-16T11:50:53;20.70;99.90
18434;DHT22;9344;52.294;13.626;2022-10-16T11:53:31;20.50;99.90
18434;DHT22;9344;52.294;13.626;2022-10-16T11:56:01;20.40;99.90
18434;DHT22;9344;52.294;13.626;2022-10-16T11:58:31;20.30;99.90
18434;DHT22;9344;52.294;13.626;2022-10-16T12:01:06;20.40;99.90
18434;DHT22;9344;52.294;13.626;2022-10-16T12:03:42;20.40;99.90
18434;DHT22;9344;52.294;13.626;2022-10-16T12:06:28;20.30;99.90
18434;DHT22;9344;52.294;13.626;2022-10-16T12:08:58;20.50;99.90
18434;DHT22;9344;52.294;13.626;2022-10-16T12:11:36;20.50;99.90
18434;DHT22;9344;52.294;13.626;2022-10-16T12:14:05;20.70;99.90
18434;DHT22;9344;52.294;13.626;2022-10-16T12:16:32;20.80;99.90
18434;DHT22;9344;52.294;13.626;2022-10-16T12:19:11;21.00;99.90
18434;DHT22;9344;52.294;13.626;2022-10-16T12:21:39;21.10;99.90
18434;DHT22;9344;52.294;13.626;2022-10-16T12:24:21;21.20;99.90
18434;DHT22;9344;52.294;13.626;2022-10-16T12:26:48;21.20;99.90
18434;DHT22;9344;52.294;13.626;2022-10-16T12:29:26;21.20;99.90
18434;DHT22;9344;52.294;13.626;2022-10-16T12:31:54;21.30;99.90
18434;DHT22;9344;52.294;13.626;2022-10-16T12:34:23;21.30;99.90
18434;DHT22;9344;52.294;13.626;2022-10-16T12:36:53;21.40;99.90
18434;DHT22;9344;52.294;13.626;2022-10-16T12:39:23;21.50;99.90
18434;DHT22;9344;52.294;13.626;2022-10-16T12:42:01;21.50;99.90
18434;DHT22;9344;52.294;13.626;2022-10-16T12:44:32;21.50;99.90
18434;DHT22;9344;52.294;13.626;2022-10-16T12:47:00;21.50;99.90
18434;DHT22;9344;52.294;13.626;2022-10-16T12:49:34;21.60;99.90
18434;DHT22;9344;52.294;13.626;2022-10-16T12:52:02;21.70;99.90
18434;DHT22;9344;52.294;13.626;2022-10-16T12:54:36;21.70;99.90
18434;DHT22;9344;52.294;13.626;2022-10-16T12:57:31;21.80;99.90
18434;DHT22;9344;52.294;13.626;2022-10-16T13:00:06;21.70;99.90
18434;DHT22;9344;52.294;13.626;2022-10-16T13:05:38;21.70;99.90
18434;DHT22;9344;52.294;13.626;2022-10-16T13:08:25;21.80;99.90
18434;DHT22;9344;52.294;13.626;2022-10-16T13:11:05;21.80;99.90
18434;DHT22;9344;52.294;13.626;2022-10-16T13:13:55;21.90;99.90
18434;DHT22;9344;52.294;13.626;2022-10-16T13:16:30;21.90;99.90
18434;DHT22;9344;52.294;13.626;2022-10-16T13:19:11;21.90;99.90
18434;DHT22;9344;52.294;13.626;2022-10-16T13:21:47;21.90;99.90
18434;DHT22;9344;52.294;13.626;2022-10-16T13:24:25;21.90;99.90
18434;DHT22;9344;52.294;13.626;2022-10-16T13:26:59;22.00;99.90
18434;DHT22;9344;52.294;13.626;2022-10-16T13:29:30;22.00;99.90
18434;DHT22;9344;52.294;13.626;2022-10-16T13:31:58;22.00;99.90
18434;DHT22;9344;52.294;13.626;2022-10-16T13:34:25;22.00;99.90
18434;DHT22;9344;52.294;13.626;2022-10-16T13:36:53;22.20;99.90
18434;DHT22;9344;52.294;13.626;2022-10-16T13:39:24;22.30;99.90
18434;DHT22;9344;52.294;13.626;2022-10-16T13:42:06;22.40;99.90
18434;DHT22;9344;52.294;13.626;2022-10-16T13:44:39;22.30;99.90
18434;DHT22;9344;52.294;13.626;2022-10-16T13:47:16;22.20;99.90
18434;DHT22;9344;52.294;13.626;2022-10-16T13:49:43;22.10;99.90
18434;DHT22;9344;52.294;13.626;2022-10-16T13:52:17;22.00;99.90
18434;DHT22;9344;52.294;13.626;2022-10-16T13:54:44;22.00;99.90
18434;DHT22;9344;52.294;13.626;2022-10-16T13:57:13;22.10;99.90
18434;DHT22;9344;52.294;13.626;2022-10-16T13:59:40;22.10;99.90
18434;DHT22;9344;52.294;13.626;2022-10-16T14:02:18;22.30;99.90
18434;DHT22;9344;52.294;13.626;2022-10-16T14:04:46;22.30;99.90
18434;DHT22;9344;52.294;13.626;2022-10-16T14:07:16;22.30;99.90
18434;DHT22;9344;52.294;13.626;2022-10-16T14:09:48;22.30;99.90
18434;DHT22;9344;52.294;13.626;2022-10-16T14:12:17;22.40;99.90
18434;DHT22;9344;52.294;13.626;2022-10-16T14:14:45;22.50;99.90
18434;DHT22;9344;52.294;13.626;2022-10-16T14:17:16;22.40;99.90
18434;DHT22;9344;52.294;13.626;2022-10-16T14:19:46;22.50;99.90
18434;DHT22;9344;52.294;13.626;2022-10-16T14:22:24;22.60;99.90
18434;DHT22;9344;52.294;13.626;2022-10-16T14:24:52;22.50;99.90
18434;DHT22;9344;52.294;13.626;2022-10-16T14:27:29;22.50;99.90
18434;DHT22;9344;52.294;13.626;2022-10-16T14:30:16;22.60;99.90
18434;DHT22;9344;52.294;13.626;2022-10-16T14:32:53;22.60;99.90
18434;DHT22;9344;52.294;13.626;2022-10-16T14:35:26;22.70;99.90
18434;DHT22;9344;52.294;13.626;2022-10-16T14:37:53;22.80;99.90
18434;DHT22;9344;52.294;13.626;2022-10-16T14:40:21;22.90;99.90
18434;DHT22;9344;52.294;13.626;2022-10-16T14:42:50;23.00;99.90
18434;DHT22;9344;52.294;13.626;2022-10-16T14:45:20;23.20;99.90
18434;DHT22;9344;52.294;13.626;2022-10-16T14:47:49;23.10;99.90
18434;DHT22;9344;52.294;13.626;2022-10-16T14:50:16;23.20;99.90
18434;DHT22;9344;52.294;13.626;2022-10-16T14:52:43;23.30;99.90
18434;DHT22;9344;52.294;13.626;2022-10-16T14:55:10;23.30;99.90
18434;DHT22;9344;52.294;13.626;2022-10-16T14:57:38;23.30;99.90
18434;DHT22;9344;52.294;13.626;2022-10-16T15:00:13;23.10;99.90
18434;DHT22;9344;52.294;13.626;2022-10-16T15:02:42;22.90;99.90
18434;DHT22;9344;52.294;13.626;2022-10-16T15:05:13;22.80;99.90
18434;DHT22;9344;52.294;13.626;2022-10-16T15:07:40;22.70;99.90
18434;DHT22;9344;52.294;13.626;2022-10-16T15:10:07;22.50;99.90
18434;DHT22;9344;52.294;13.626;2022-10-16T15:12:34;22.30;99.90
18434;DHT22;9344;52.294;13.626;2022-10-16T15:15:01;22.20;99.90
18434;DHT22;9344;52.294;13.626;2022-10-16T15:17:28;22.20;99.90
18434;DHT22;9344;52.294;13.626;2022-10-16T15:19:55;21.90;99.90
18434;DHT22;9344;52.294;13.626;2022-10-16T15:22:23;21.90;99.90
18434;DHT22;9344;52.294;13.626;2022-10-16T15:24:50;21.70;99.90
18434;DHT22;9344;52.294;13.626;2022-10-16T15:27:16;21.60;99.90
18434;DHT22;9344;52.294;13.626;2022-10-16T15:29:43;21.50;99.90
18434;DHT22;9344;52.294;13.626;2022-10-16T15:32:10;21.40;99.90
18434;DHT22;9344;52.294;13.626;2022-10-16T15:34:38;21.30;99.90
18434;DHT22;9344;52.294;13.626;2022-10-16T15:37:04;21.20;99.90
18434;DHT22;9344;52.294;13.626;2022-10-16T15:39:31;21.10;99.90
18434;DHT22;9344;52.294;13.626;2022-10-16T15:41:57;21.10;99.90
18434;DHT22;9344;52.294;13.626;2022-10-16T15:44:24;21.00;99.90
18434;DHT22;9344;52.294;13.626;2022-10-16T15:46:55;21.00;99.90
18434;DHT22;9344;52.294;13.626;2022-10-16T15:49:22;20.90;99.90
18434;DHT22;9344;52.294;13.626;2022-10-16T15:51:50;20.80;99.90